createdAt,value
2022-11-16T00:01:34.981Z,4.05
2022-11-16T00:03:35.918Z,4.05
2022-11-16T00:05:36.937Z,4.05
2022-11-16T00:07:38.057Z,4.05
2022-11-16T00:11:40.945Z,4.04
2022-11-16T00:13:42.394Z,4.05
2022-11-16T00:15:43.893Z,4.04
2022-11-16T00:17:45.505Z,4.04
2022-11-16T00:21:48.429Z,4.04
2022-11-16T00:23:49.785Z,4.05
2022-11-16T00:25:50.917Z,4.04
2022-11-16T00:27:52.515Z,4.05
2022-11-16T00:29:54.135Z,4.04
2022-11-16T00:31:55.112Z,4.04
2022-11-16T00:33:56.998Z,4.04
2022-11-16T00:38:00.397Z,4.04
2022-11-16T00:40:01.704Z,4.04
2022-11-16T00:44:04.376Z,4.04
2022-11-16T00:46:05.563Z,4.04
2022-11-16T00:48:07.274Z,4.04
2022-11-16T00:50:08.540Z,4.04
2022-11-16T00:54:11.734Z,4.04
2022-11-16T00:56:13.303Z,4.04
2022-11-16T00:58:14.686Z,4.04
2022-11-16T01:00:16.590Z,4.04
2022-11-16T01:04:19.086Z,4.04
2022-11-16T01:06:20.195Z,4.04
2022-11-16T01:08:21.893Z,4.04
2022-11-16T01:10:23.176Z,4.04
2022-11-16T01:12:24.544Z,4.04
2022-11-16T01:14:34.839Z,4.04
2022-11-16T01:16:27.152Z,4.04
2022-11-16T01:20:30.289Z,4.04
2022-11-16T01:22:31.270Z,4.04
2022-11-16T01:26:34.380Z,4.04
2022-11-16T01:28:36.302Z,4.04
2022-11-16T01:30:37.950Z,4.03
2022-11-16T01:32:38.995Z,4.04
2022-11-16T01:36:41.601Z,4.03
2022-11-16T01:38:42.708Z,4.03
2022-11-16T01:39:26.544Z,4.03
2022-11-16T01:41:28.325Z,4.04
2022-11-16T01:43:29.780Z,4.03
2022-11-16T01:47:32.587Z,4.03
2022-11-16T01:49:33.845Z,4.03
2022-11-16T01:51:35.169Z,4.03
2022-11-16T01:53:36.443Z,4.03
2022-11-16T01:57:38.524Z,4.03
2022-11-16T01:59:40.389Z,4.03
2022-11-16T02:01:41.539Z,4.03
2022-11-16T02:03:42.495Z,4.03
2022-11-16T02:05:43.762Z,4.03
2022-11-16T02:07:45.703Z,4.03
2022-11-16T02:09:47.489Z,4.03
2022-11-16T02:13:51.539Z,4.03
2022-11-16T02:15:51.552Z,4.03
2022-11-16T02:17:52.584Z,4.03
2022-11-16T02:19:53.623Z,4.02
2022-11-16T02:21:55.354Z,4.03
2022-11-16T02:23:57.203Z,4.03
2022-11-16T02:25:58.343Z,4.03
2022-11-16T02:30:00.522Z,4.03
2022-11-16T02:32:01.663Z,4.02
2022-11-16T02:34:03.418Z,4.02
2022-11-16T02:36:04.655Z,4.02
2022-11-16T02:40:07.650Z,4.03
2022-11-16T02:42:08.776Z,4.02
2022-11-16T02:44:10.275Z,4.02
2022-11-16T02:46:12.118Z,4.02
2022-11-16T02:48:13.245Z,4.02
2022-11-16T02:50:14.384Z,4.02
2022-11-16T02:52:16.015Z,4.02
2022-11-16T02:56:19.509Z,4.02
2022-11-16T02:58:20.608Z,4.02
2022-11-16T03:02:24.188Z,4.02
2022-11-16T03:04:25.677Z,4.02
2022-11-16T03:06:26.925Z,4.02
2022-11-16T03:08:28.716Z,4.02
2022-11-16T03:12:31.751Z,4.02
2022-11-16T03:14:32.895Z,4.02
2022-11-16T03:16:34.675Z,4.02
2022-11-16T03:18:36.712Z,4.02
2022-11-16T03:22:39.584Z,4.02
2022-11-16T03:24:40.649Z,4.02
2022-11-16T03:26:41.885Z,4.02
2022-11-16T03:28:43.534Z,4.02
2022-11-16T03:30:44.893Z,4.01
2022-11-16T03:32:46.347Z,4.02
2022-11-16T03:34:47.441Z,4.02
2022-11-16T03:38:49.672Z,4.01
2022-11-16T03:40:50.740Z,4.01
2022-11-16T03:42:52.573Z,4.02
2022-11-16T03:44:54.501Z,4.01
2022-11-16T03:46:56.418Z,4.01
2022-11-16T03:48:57.548Z,4.01
2022-11-16T03:50:58.549Z,4.01
2022-11-16T03:55:01.676Z,4.01
2022-11-16T03:57:03.567Z,4.01
2022-11-16T03:59:05.242Z,4.01
2022-11-16T04:01:07.062Z,4.01
2022-11-16T04:03:08.372Z,4.01
2022-11-16T04:05:09.536Z,4.01
2022-11-16T04:07:11.193Z,4.01
2022-11-16T04:11:13.971Z,4.01
2022-11-16T04:13:15.526Z,4.01
2022-11-16T04:15:17.119Z,4.01
2022-11-16T04:17:18.257Z,4.01
2022-11-16T04:21:21.103Z,4.01
2022-11-16T04:23:22.777Z,4.01
2022-11-16T04:25:24.002Z,4.01
2022-11-16T04:27:25.454Z,4.01
2022-11-16T04:29:27.217Z,4
2022-11-16T04:31:28.584Z,4
2022-11-16T04:33:30.373Z,4.01
2022-11-16T04:37:33.132Z,4
2022-11-16T04:39:34.781Z,4
2022-11-16T04:41:35.984Z,4
2022-11-16T04:43:37.550Z,4
2022-11-16T04:45:39.422Z,4.01
2022-11-16T04:47:40.456Z,4
2022-11-16T04:49:42.288Z,4
2022-11-16T04:53:44.626Z,4
2022-11-16T04:55:45.958Z,4
2022-11-16T04:57:47.708Z,4
2022-11-16T04:59:49.024Z,4
2022-11-16T05:01:50.985Z,4
2022-11-16T05:03:52.325Z,4
2022-11-16T05:05:53.456Z,4
2022-11-16T05:09:56.532Z,4
2022-11-16T05:11:58.164Z,4
2022-11-16T05:13:59.251Z,4
2022-11-16T05:16:00.318Z,4
2022-11-16T05:20:03.589Z,4
2022-11-16T05:22:04.748Z,4
2022-11-16T05:24:06.093Z,4
2022-11-16T05:26:07.296Z,4
2022-11-16T05:28:08.463Z,4
2022-11-16T05:30:10.026Z,4
2022-11-16T05:32:10.901Z,4
2022-11-16T05:36:13.547Z,4
2022-11-16T05:38:14.629Z,4
2022-11-16T05:40:15.557Z,4
2022-11-16T05:42:17.284Z,4
2022-11-16T05:46:20.432Z,4
2022-11-16T05:48:22.226Z,4
2022-11-16T05:52:25.645Z,4
2022-11-16T05:54:27.183Z,4
2022-11-16T05:56:28.153Z,3.99
2022-11-16T05:58:29.203Z,4
2022-11-16T06:02:32.172Z,4
2022-11-16T06:04:33.443Z,3.99
2022-11-16T06:06:34.670Z,3.99
2022-11-16T06:08:36.857Z,4
2022-11-16T06:10:37.558Z,4
2022-11-16T06:12:39.065Z,3.99
2022-11-16T06:14:40.229Z,3.99
2022-11-16T06:18:43.652Z,3.99
2022-11-16T06:20:44.650Z,3.99
2022-11-16T06:22:46.460Z,4
2022-11-16T06:24:48.213Z,3.99
2022-11-16T06:26:49.163Z,3.99
2022-11-16T06:28:50.604Z,3.99
2022-11-16T06:30:52.477Z,3.99
2022-11-16T06:34:55.061Z,3.98
2022-11-16T06:36:56.374Z,3.99
2022-11-16T06:38:57.649Z,3.99
2022-11-16T06:40:59.593Z,3.99
2022-11-16T06:45:02.541Z,3.99
2022-11-16T06:47:04.441Z,3.99
2022-11-16T06:49:05.557Z,3.99
2022-11-16T06:51:07.290Z,3.99
2022-11-16T06:53:09.067Z,3.99
2022-11-16T06:55:10.086Z,3.99
2022-11-16T06:57:11.580Z,3.98
2022-11-16T07:01:14.249Z,3.98
2022-11-16T07:03:15.322Z,3.99
2022-11-16T07:05:16.519Z,3.98
2022-11-16T07:07:18.282Z,3.98
2022-11-16T07:09:19.504Z,3.98
2022-11-16T07:11:20.761Z,3.98
2022-11-16T07:13:22.635Z,3.98
2022-11-16T07:17:25.919Z,3.98
2022-11-16T07:19:36.242Z,3.98
2022-11-16T07:21:28.897Z,3.98
2022-11-16T07:23:30.447Z,3.98
2022-11-16T07:27:33.610Z,3.98
2022-11-16T07:29:35.223Z,3.98
2022-11-16T07:33:37.852Z,3.98
2022-11-16T07:35:39.373Z,3.98
2022-11-16T07:37:41.249Z,3.98
2022-11-16T07:39:42.700Z,3.98
2022-11-16T07:43:50.016Z,3.98
2022-11-16T07:45:46.748Z,3.98
2022-11-16T07:47:47.809Z,3.98
2022-11-16T07:49:48.872Z,3.98
2022-11-16T07:51:50.630Z,3.98
2022-11-16T07:53:52.418Z,3.98
2022-11-16T07:55:54.317Z,3.98
2022-11-16T07:59:56.850Z,3.98
2022-11-16T08:01:58.776Z,3.98
2022-11-16T08:04:00.195Z,3.98
2022-11-16T08:06:01.862Z,3.98
2022-11-16T08:10:05.575Z,3.98
2022-11-16T08:12:06.745Z,3.98
2022-11-16T08:16:09.522Z,3.98
2022-11-16T08:18:10.555Z,3.97
2022-11-16T08:20:11.830Z,3.98
2022-11-16T08:22:12.745Z,3.98
2022-11-16T08:24:58.130Z,3.97
2022-11-16T08:26:59.052Z,3.97
2022-11-16T08:29:00.677Z,3.97
2022-11-16T08:31:02.241Z,3.98
2022-11-16T08:33:04.045Z,3.97
2022-11-16T08:37:06.434Z,3.98
2022-11-16T08:39:07.750Z,3.98
2022-11-16T08:41:08.938Z,3.99
2022-11-16T08:43:10.157Z,4
2022-11-16T08:45:11.610Z,3.99
2022-11-16T08:47:13.250Z,3.99
2022-11-16T08:49:14.595Z,3.99
2022-11-16T08:53:17.875Z,3.98
2022-11-16T08:55:19.427Z,3.98
2022-11-16T08:57:20.358Z,3.98
2022-11-16T08:59:21.566Z,3.98
2022-11-16T09:03:25.122Z,3.99
2022-11-16T09:05:26.570Z,4
2022-11-16T09:07:27.882Z,4
2022-11-16T09:09:29.330Z,4.01
2022-11-16T09:11:31.203Z,4.01
2022-11-16T09:13:32.571Z,4.01
2022-11-16T09:15:33.491Z,4
2022-11-16T09:19:36.968Z,4
2022-11-16T09:21:37.924Z,4
2022-11-16T09:25:40.994Z,4
2022-11-16T09:27:42.708Z,4
2022-11-16T09:29:43.952Z,4.01
2022-11-16T09:31:45.773Z,4.03
2022-11-16T09:35:48.653Z,4.02
2022-11-16T09:37:49.943Z,4.02
2022-11-16T09:39:51.060Z,4.02
2022-11-16T09:41:52.542Z,4.02
2022-11-16T09:45:54.847Z,4.02
2022-11-16T09:47:56.025Z,4.02
2022-11-16T09:51:58.343Z,4.02
2022-11-16T09:53:59.678Z,4.03
2022-11-16T09:56:00.918Z,4.03
2022-11-16T09:58:02.747Z,4.03
2022-11-16T10:02:04.975Z,4.04
2022-11-16T10:04:06.123Z,4.04
2022-11-16T10:06:07.723Z,4.04
2022-11-16T10:08:09.054Z,4.05
2022-11-16T10:10:10.702Z,4.06
2022-11-16T10:12:12.005Z,4.06
2022-11-16T10:14:13.496Z,4.07
2022-11-16T10:18:16.513Z,4.08
2022-11-16T10:20:18.680Z,4.08
2022-11-16T10:22:19.946Z,4.08
2022-11-16T10:24:20.821Z,4.09
2022-11-16T10:28:24.210Z,4.1
2022-11-16T10:30:25.234Z,4.1
2022-11-16T10:34:27.667Z,4.1
2022-11-16T10:36:29.212Z,4.11
2022-11-16T10:38:30.436Z,4.11
2022-11-16T10:40:31.530Z,4.11
2022-11-16T10:42:32.647Z,4.12
2022-11-16T10:44:33.718Z,4.12
2022-11-16T10:46:35.171Z,4.12
2022-11-16T10:50:38.552Z,4.13
2022-11-16T10:52:39.648Z,4.13
2022-11-16T10:54:44.168Z,4.13
2022-11-16T10:56:42.106Z,4.12
2022-11-16T10:58:43.976Z,4.14
2022-11-16T11:00:45.220Z,4.12
2022-11-16T11:02:46.831Z,4.12
2022-11-16T11:06:49.345Z,4.12
2022-11-16T11:08:50.990Z,4.12
2022-11-16T11:10:52.431Z,4.12
2022-11-16T11:12:53.782Z,4.12
2022-11-16T11:16:56.524Z,4.11
2022-11-16T11:18:58.336Z,4.12
2022-11-16T11:23:01.074Z,4.12
2022-11-16T11:25:02.603Z,4.12
2022-11-16T11:27:04.175Z,4.11
2022-11-16T11:29:05.322Z,4.12
2022-11-16T11:33:07.949Z,4.12
2022-11-16T11:35:09.776Z,4.12
2022-11-16T11:37:11.004Z,4.12
2022-11-16T11:39:12.330Z,4.14
2022-11-16T11:41:13.776Z,4.15
2022-11-16T11:43:18.823Z,4.16
2022-11-16T11:45:16.588Z,4.16
2022-11-16T11:49:20.211Z,4.13
2022-11-16T11:51:21.169Z,4.14
2022-11-16T11:53:22.658Z,4.16
2022-11-16T11:55:24.335Z,4.16
2022-11-16T11:59:26.947Z,4.16
2022-11-16T12:01:28.585Z,4.17
2022-11-16T12:03:29.529Z,4.17
2022-11-16T12:05:30.748Z,4.17
2022-11-16T12:07:31.675Z,4.17
2022-11-16T12:09:32.920Z,4.16
2022-11-16T12:11:34.378Z,4.16
2022-11-16T12:15:37.097Z,4.16
2022-11-16T12:17:38.835Z,4.16
2022-11-16T12:21:41.645Z,4.15
2022-11-16T12:23:42.674Z,4.14
2022-11-16T12:25:43.694Z,4.15
2022-11-16T12:27:44.706Z,4.14
2022-11-16T12:31:47.357Z,4.14
2022-11-16T12:33:48.359Z,4.14
2022-11-16T12:35:50.052Z,4.15
2022-11-16T12:37:51.320Z,4.14
2022-11-16T12:39:52.493Z,4.15
2022-11-16T12:41:53.841Z,4.14
2022-11-16T12:43:55.501Z,4.15
2022-11-16T12:47:58.653Z,4.17
2022-11-16T12:49:59.750Z,4.17
2022-11-16T12:52:00.951Z,4.17
2022-11-16T12:54:02.439Z,4.18
2022-11-16T12:58:04.444Z,4.18
2022-11-16T13:00:05.744Z,4.19
2022-11-16T13:02:06.770Z,4.18
2022-11-16T13:04:07.677Z,4.19
2022-11-16T13:06:09.402Z,4.19
2022-11-16T13:08:10.344Z,4.18
2022-11-16T13:10:12.134Z,4.17
2022-11-16T13:12:13.005Z,4.19
2022-11-16T13:14:14.957Z,4.19
2022-11-16T13:16:16.286Z,4.19
2022-11-16T13:18:17.215Z,4.19
2022-11-16T13:20:18.886Z,4.19
2022-11-16T13:22:20.431Z,4.19
2022-11-16T13:24:21.285Z,4.19
2022-11-16T13:26:22.492Z,4.2
2022-11-16T13:30:24.492Z,4.2
2022-11-16T13:32:25.414Z,4.2
2022-11-16T13:34:26.483Z,4.2
2022-11-16T13:36:28.171Z,4.2
2022-11-16T13:40:30.374Z,4.2
2022-11-16T13:42:31.929Z,4.2
2022-11-16T13:44:32.875Z,4.2
2022-11-16T13:46:54.559Z,4.2
2022-11-16T13:48:36.177Z,4.2
2022-11-16T13:50:38.023Z,4.2
2022-11-16T13:53:06.419Z,4.2
2022-11-16T13:56:41.174Z,4.2
2022-11-16T13:58:42.807Z,4.2
2022-11-16T14:02:45.333Z,4.2
2022-11-16T14:04:46.948Z,4.2
2022-11-16T14:06:48.305Z,4.2
2022-11-16T14:08:50.019Z,4.2
2022-11-16T14:12:52.669Z,4.19
2022-11-16T14:14:53.629Z,4.19
2022-11-16T14:16:54.903Z,4.19
2022-11-16T14:18:56.423Z,4.19
2022-11-16T14:20:57.515Z,4.18
2022-11-16T14:22:58.974Z,4.18
2022-11-16T14:25:00.031Z,4.19
2022-11-16T14:29:02.621Z,4.18
2022-11-16T14:31:03.877Z,4.18
2022-11-16T14:33:04.868Z,4.18
2022-11-16T14:35:06.529Z,4.18
2022-11-16T14:39:08.916Z,4.18
2022-11-16T14:41:10.340Z,4.18
2022-11-16T14:43:16.798Z,4.18
2022-11-16T14:45:13.120Z,4.18
2022-11-16T14:47:14.589Z,4.18
2022-11-16T14:49:16.172Z,4.18
2022-11-16T14:51:17.289Z,4.17
2022-11-16T14:55:19.863Z,4.18
2022-11-16T14:57:21.650Z,4.18
2022-11-16T14:59:22.608Z,4.17
2022-11-16T15:01:24.311Z,4.18
2022-11-16T15:03:25.247Z,4.17
2022-11-16T15:05:26.884Z,4.17
2022-11-16T15:07:28.124Z,4.17
2022-11-16T15:10:13.093Z,4.17
2022-11-16T15:12:15.031Z,4.17
2022-11-16T15:16:17.144Z,4.17
2022-11-16T15:18:18.160Z,4.17
2022-11-16T15:20:19.725Z,4.17
2022-11-16T15:22:20.837Z,4.17
2022-11-16T15:24:30.307Z,4.17
2022-11-16T15:26:23.361Z,4.17
2022-11-16T15:28:25.093Z,4.17
2022-11-16T15:32:27.847Z,4.17
2022-11-16T15:34:29.714Z,4.17
2022-11-16T15:38:33.060Z,4.17
2022-11-16T15:40:34.701Z,4.17
2022-11-16T15:42:36.533Z,4.17
2022-11-16T15:44:38.289Z,4.17
2022-11-16T15:48:41.237Z,4.17
2022-11-16T15:50:42.484Z,4.16
2022-11-16T15:52:44.304Z,4.16
2022-11-16T15:54:45.640Z,4.16
2022-11-16T15:58:49.314Z,4.17
2022-11-16T16:00:51.290Z,4.16
2022-11-16T16:02:52.326Z,4.17
2022-11-16T16:04:53.726Z,4.16
2022-11-16T16:06:54.759Z,4.16
2022-11-16T16:08:56.180Z,4.16
2022-11-16T16:10:57.557Z,4.16
2022-11-16T16:15:00.267Z,4.16
2022-11-16T16:17:02.020Z,4.16
2022-11-16T16:19:08.286Z,4.16
2022-11-16T16:21:04.921Z,4.16
2022-11-16T16:23:06.062Z,4.16
2022-11-16T16:25:07.069Z,4.16
2022-11-16T16:27:08.253Z,4.16
2022-11-16T16:31:11.190Z,4.16
2022-11-16T16:33:12.962Z,4.16
2022-11-16T16:35:14.704Z,4.16
2022-11-16T16:37:15.892Z,4.16
2022-11-16T16:39:17.122Z,4.16
2022-11-16T16:41:22.799Z,4.16
2022-11-16T16:43:19.252Z,4.16
2022-11-16T16:47:22.307Z,4.16
2022-11-16T16:49:23.348Z,4.16
2022-11-16T16:51:24.924Z,4.16
2022-11-16T16:53:26.441Z,4.16
2022-11-16T16:57:29.958Z,4.16
2022-11-16T16:59:31.926Z,4.16
2022-11-16T17:01:33.619Z,4.15
2022-11-16T17:03:35.340Z,4.16
2022-11-16T17:05:36.227Z,4.15
2022-11-16T17:07:37.274Z,4.15
2022-11-16T17:09:47.690Z,4.15
2022-11-16T17:11:40.299Z,4.15
2022-11-16T17:13:41.257Z,4.15
2022-11-16T17:15:42.995Z,4.15
2022-11-16T17:17:44.011Z,4.15
2022-11-16T17:19:45.695Z,4.15
2022-11-16T17:21:47.387Z,4.15
2022-11-16T17:23:48.853Z,4.15
2022-11-16T17:25:50.810Z,4.15
2022-11-16T17:29:54.501Z,4.15
2022-11-16T17:31:55.470Z,4.15
2022-11-16T17:33:56.433Z,4.15
2022-11-16T17:35:57.957Z,4.15
2022-11-16T17:40:00.867Z,4.15
2022-11-16T17:42:02.044Z,4.14
2022-11-16T17:46:04.915Z,4.15
2022-11-16T17:48:05.946Z,4.15
2022-11-16T17:50:07.770Z,4.15
2022-11-16T17:52:08.899Z,4.15
2022-11-16T17:56:11.292Z,4.14
2022-11-16T17:58:12.860Z,4.14
2022-11-16T18:00:14.649Z,4.14
2022-11-16T18:02:16.560Z,4.14
2022-11-16T18:04:17.906Z,4.14
2022-11-16T18:06:18.938Z,4.14
2022-11-16T18:08:20.784Z,4.14
2022-11-16T18:12:23.948Z,4.14
2022-11-16T18:14:24.972Z,4.14
2022-11-16T18:16:26.010Z,4.14
2022-11-16T18:18:36.863Z,4.14
2022-11-16T18:20:29.775Z,4.14
2022-11-16T18:22:30.950Z,4.14
2022-11-16T18:24:31.901Z,4.14
2022-11-16T18:26:33.396Z,4.14
2022-11-16T18:28:34.710Z,4.14
2022-11-16T18:30:35.850Z,4.14
2022-11-16T18:32:37.158Z,4.14
2022-11-16T18:34:38.766Z,4.14
2022-11-16T18:38:41.341Z,4.14
2022-11-16T18:40:42.586Z,4.14
2022-11-16T18:44:44.660Z,4.14
2022-11-16T18:46:45.932Z,4.14
2022-11-16T18:48:47.066Z,4.14
2022-11-16T18:50:48.170Z,4.14
2022-11-16T18:54:51.429Z,4.14
2022-11-16T18:56:52.510Z,4.14
2022-11-16T18:58:54.007Z,4.14
2022-11-16T19:00:55.432Z,4.13
2022-11-16T19:02:57.039Z,4.13
2022-11-16T19:04:58.195Z,4.13
2022-11-16T19:06:59.331Z,4.13
2022-11-16T19:11:01.963Z,4.13
2022-11-16T19:13:03.096Z,4.13
2022-11-16T19:15:05.029Z,4.13
2022-11-16T19:17:06.383Z,4.13
2022-11-16T19:21:09.455Z,4.13
2022-11-16T19:23:11.007Z,4.13
2022-11-16T19:25:12.677Z,4.13
2022-11-16T19:27:13.917Z,4.13
2022-11-16T19:29:15.275Z,4.13
2022-11-16T19:31:16.886Z,4.13
2022-11-16T19:33:18.385Z,4.13
2022-11-16T19:37:21.055Z,4.13
2022-11-16T19:39:22.462Z,4.13
2022-11-16T19:41:23.414Z,4.13
2022-11-16T19:43:25.299Z,4.12
2022-11-16T19:45:27.185Z,4.12
2022-11-16T19:47:28.410Z,4.12
2022-11-16T19:49:30.250Z,4.12
2022-11-16T19:53:33.979Z,4.12
2022-11-16T19:55:34.793Z,4.12
2022-11-16T19:57:36.586Z,4.12
2022-11-16T19:59:37.547Z,4.12
2022-11-16T20:03:40.098Z,4.12
2022-11-16T20:05:41.507Z,4.12
2022-11-16T20:09:43.844Z,4.12
